sensor_id;sensor_type;location;lat;lon;timestamp;P1;durP1;ratioP1;P2;durP2;ratioP2
62711;SDS011;48772;55.586;37.730;2023-05-02T00:02:13;16.05;;;6.88;;
62711;SDS011;48772;55.586;37.730;2023-05-02T00:04:39;4.57;;;2.58;;
62711;SDS011;48772;55.586;37.730;2023-05-02T00:07:05;5.03;;;2.35;;
62711;SDS011;48772;55.586;37.730;2023-05-02T00:09:31;4.15;;;2.08;;
62711;SDS011;48772;55.586;37.730;2023-05-02T00:11:57;4.45;;;2.38;;
62711;SDS011;48772;55.586;37.730;2023-05-02T00:14:23;5.05;;;2.50;;
62711;SDS011;48772;55.586;37.730;2023-05-02T00:16:49;2.50;;;2.03;;
62711;SDS011;48772;55.586;37.730;2023-05-02T00:19:15;4.13;;;2.22;;
62711;SDS011;48772;55.586;37.730;2023-05-02T00:21:40;3.33;;;2.53;;
62711;SDS011;48772;55.586;37.730;2023-05-02T00:24:06;3.47;;;2.58;;
62711;SDS011;48772;55.586;37.730;2023-05-02T00:26:32;8.65;;;2.00;;
62711;SDS011;48772;55.586;37.730;2023-05-02T00:28:58;10.15;;;2.28;;
62711;SDS011;48772;55.586;37.730;2023-05-02T00:31:23;3.53;;;2.40;;
62711;SDS011;48772;55.586;37.730;2023-05-02T00:33:49;5.25;;;2.10;;
62711;SDS011;48772;55.586;37.730;2023-05-02T00:36:16;3.25;;;1.90;;
62711;SDS011;48772;55.586;37.730;2023-05-02T00:38:43;2.30;;;2.10;;
62711;SDS011;48772;55.586;37.730;2023-05-02T00:41:10;3.13;;;1.95;;
62711;SDS011;48772;55.586;37.730;2023-05-02T00:43:36;4.50;;;2.20;;
62711;SDS011;48772;55.586;37.730;2023-05-02T00:46:06;2.63;;;2.00;;
62711;SDS011;48772;55.586;37.730;2023-05-02T00:48:32;2.88;;;2.20;;
62711;SDS011;48772;55.586;37.730;2023-05-02T00:51:01;3.67;;;2.33;;
62711;SDS011;48772;55.586;37.730;2023-05-02T00:53:30;2.72;;;1.90;;
62711;SDS011;48772;55.586;37.730;2023-05-02T00:55:56;3.45;;;1.80;;
62711;SDS011;48772;55.586;37.730;2023-05-02T00:58:23;3.78;;;1.92;;
62711;SDS011;48772;55.586;37.730;2023-05-02T01:03:54;4.72;;;2.40;;
62711;SDS011;48772;55.586;37.730;2023-05-02T01:09:15;2.60;;;2.40;;
62711;SDS011;48772;55.586;37.730;2023-05-02T01:11:51;4.75;;;2.20;;
62711;SDS011;48772;55.586;37.730;2023-05-02T01:14:24;3.60;;;2.20;;
62711;SDS011;48772;55.586;37.730;2023-05-02T01:17:01;5.47;;;2.38;;
62711;SDS011;48772;55.586;37.730;2023-05-02T01:19:34;3.92;;;2.70;;
62711;SDS011;48772;55.586;37.730;2023-05-02T01:22:02;2.88;;;2.33;;
62711;SDS011;48772;55.586;37.730;2023-05-02T01:27:23;6.70;;;2.72;;
62711;SDS011;48772;55.586;37.730;2023-05-02T01:29:55;4.68;;;2.70;;
62711;SDS011;48772;55.586;37.730;2023-05-02T01:32:23;5.75;;;2.70;;
62711;SDS011;48772;55.586;37.730;2023-05-02T01:34:50;7.53;;;3.05;;
62711;SDS011;48772;55.586;37.730;2023-05-02T01:37:18;4.38;;;2.95;;
62711;SDS011;48772;55.586;37.730;2023-05-02T01:39:46;6.05;;;3.47;;
62711;SDS011;48772;55.586;37.730;2023-05-02T01:42:14;2.58;;;2.20;;
62711;SDS011;48772;55.586;37.730;2023-05-02T01:44:42;6.57;;;3.55;;
62711;SDS011;48772;55.586;37.730;2023-05-02T01:47:10;6.53;;;3.13;;
62711;SDS011;48772;55.586;37.730;2023-05-02T01:49:36;5.45;;;3.00;;
62711;SDS011;48772;55.586;37.730;2023-05-02T01:52:04;5.47;;;3.33;;
62711;SDS011;48772;55.586;37.730;2023-05-02T01:54:36;7.57;;;3.40;;
62711;SDS011;48772;55.586;37.730;2023-05-02T01:57:04;5.15;;;2.80;;
62711;SDS011;48772;55.586;37.730;2023-05-02T01:59:32;5.45;;;2.97;;
62711;SDS011;48772;55.586;37.730;2023-05-02T02:02:00;5.22;;;3.33;;
62711;SDS011;48772;55.586;37.730;2023-05-02T02:04:27;5.13;;;3.28;;
62711;SDS011;48772;55.586;37.730;2023-05-02T02:06:57;4.45;;;3.10;;
62711;SDS011;48772;55.586;37.730;2023-05-02T02:09:28;6.93;;;3.40;;
62711;SDS011;48772;55.586;37.730;2023-05-02T02:14:32;8.40;;;4.05;;
62711;SDS011;48772;55.586;37.730;2023-05-02T02:17:01;11.18;;;5.95;;
62711;SDS011;48772;55.586;37.730;2023-05-02T02:19:35;11.38;;;5.05;;
62711;SDS011;48772;55.586;37.730;2023-05-02T02:22:03;12.73;;;6.57;;
62711;SDS011;48772;55.586;37.730;2023-05-02T02:24:32;13.40;;;3.88;;
62711;SDS011;48772;55.586;37.730;2023-05-02T02:27:00;8.20;;;3.85;;
62711;SDS011;48772;55.586;37.730;2023-05-02T02:29:27;10.07;;;3.50;;
62711;SDS011;48772;55.586;37.730;2023-05-02T02:31:52;6.65;;;3.13;;
62711;SDS011;48772;55.586;37.730;2023-05-02T02:34:18;5.20;;;3.15;;
62711;SDS011;48772;55.586;37.730;2023-05-02T02:36:55;9.38;;;3.20;;
62711;SDS011;48772;55.586;37.730;2023-05-02T02:39:34;6.10;;;3.53;;
62711;SDS011;48772;55.586;37.730;2023-05-02T02:42:11;8.00;;;3.08;;
62711;SDS011;48772;55.586;37.730;2023-05-02T02:52:53;14.18;;;4.68;;
62711;SDS011;48772;55.586;37.730;2023-05-02T03:01:07;7.72;;;3.35;;
62711;SDS011;48772;55.586;37.730;2023-05-02T03:03:39;15.50;;;4.55;;
62711;SDS011;48772;55.586;37.730;2023-05-02T03:06:07;8.30;;;4.50;;
62711;SDS011;48772;55.586;37.730;2023-05-02T03:08:43;15.07;;;5.75;;
62711;SDS011;48772;55.586;37.730;2023-05-02T03:11:14;18.77;;;5.00;;
62711;SDS011;48772;55.586;37.730;2023-05-02T03:13:41;14.27;;;4.40;;
62711;SDS011;48772;55.586;37.730;2023-05-02T03:16:17;7.78;;;4.40;;
62711;SDS011;48772;55.586;37.730;2023-05-02T03:18:59;8.13;;;4.18;;
62711;SDS011;48772;55.586;37.730;2023-05-02T03:21:26;11.98;;;3.90;;
62711;SDS011;48772;55.586;37.730;2023-05-02T03:23:53;8.77;;;4.50;;
62711;SDS011;48772;55.586;37.730;2023-05-02T03:26:19;9.77;;;3.80;;
62711;SDS011;48772;55.586;37.730;2023-05-02T03:28:46;7.18;;;4.03;;
62711;SDS011;48772;55.586;37.730;2023-05-02T03:31:17;5.50;;;2.70;;
62711;SDS011;48772;55.586;37.730;2023-05-02T03:33:44;11.00;;;3.47;;
62711;SDS011;48772;55.586;37.730;2023-05-02T03:36:10;8.63;;;3.15;;
62711;SDS011;48772;55.586;37.730;2023-05-02T03:38:37;2.85;;;2.50;;
62711;SDS011;48772;55.586;37.730;2023-05-02T03:41:07;6.13;;;3.03;;
62711;SDS011;48772;55.586;37.730;2023-05-02T03:43:33;6.82;;;3.65;;
62711;SDS011;48772;55.586;37.730;2023-05-02T03:46:03;10.63;;;3.08;;
62711;SDS011;48772;55.586;37.730;2023-05-02T03:48:33;4.22;;;2.40;;
62711;SDS011;48772;55.586;37.730;2023-05-02T03:51:00;4.32;;;2.33;;
62711;SDS011;48772;55.586;37.730;2023-05-02T03:53:28;5.85;;;2.22;;
62711;SDS011;48772;55.586;37.730;2023-05-02T03:55:57;5.80;;;2.40;;
62711;SDS011;48772;55.586;37.730;2023-05-02T03:58:32;8.95;;;2.60;;
62711;SDS011;48772;55.586;37.730;2023-05-02T04:00:58;7.90;;;2.50;;
62711;SDS011;48772;55.586;37.730;2023-05-02T04:03:26;4.10;;;2.38;;
62711;SDS011;48772;55.586;37.730;2023-05-02T04:05:53;3.85;;;2.10;;
62711;SDS011;48772;55.586;37.730;2023-05-02T04:08:19;4.57;;;2.42;;
62711;SDS011;48772;55.586;37.730;2023-05-02T04:10:45;4.05;;;2.47;;
62711;SDS011;48772;55.586;37.730;2023-05-02T04:13:12;4.65;;;2.42;;
62711;SDS011;48772;55.586;37.730;2023-05-02T04:15:43;5.93;;;2.33;;
62711;SDS011;48772;55.586;37.730;2023-05-02T04:18:10;7.47;;;2.72;;
62711;SDS011;48772;55.586;37.730;2023-05-02T04:20:36;5.03;;;1.95;;
62711;SDS011;48772;55.586;37.730;2023-05-02T04:23:02;4.70;;;1.80;;
62711;SDS011;48772;55.586;37.730;2023-05-02T04:25:29;7.50;;;3.70;;
62711;SDS011;48772;55.586;37.730;2023-05-02T04:27:58;6.50;;;3.38;;
62711;SDS011;48772;55.586;37.730;2023-05-02T04:30:24;5.93;;;2.60;;
62711;SDS011;48772;55.586;37.730;2023-05-02T04:32:59;11.45;;;2.45;;
62711;SDS011;48772;55.586;37.730;2023-05-02T04:35:29;4.85;;;2.22;;
62711;SDS011;48772;55.586;37.730;2023-05-02T04:37:55;2.25;;;1.80;;
62711;SDS011;48772;55.586;37.730;2023-05-02T04:40:22;6.55;;;2.00;;
62711;SDS011;48772;55.586;37.730;2023-05-02T04:42:53;6.38;;;1.95;;
62711;SDS011;48772;55.586;37.730;2023-05-02T04:45:21;4.38;;;2.08;;
62711;SDS011;48772;55.586;37.730;2023-05-02T04:47:48;13.52;;;3.03;;
62711;SDS011;48772;55.586;37.730;2023-05-02T04:50:13;7.13;;;1.70;;
62711;SDS011;48772;55.586;37.730;2023-05-02T04:52:40;4.95;;;1.60;;
62711;SDS011;48772;55.586;37.730;2023-05-02T04:55:06;4.93;;;1.80;;
62711;SDS011;48772;55.586;37.730;2023-05-02T04:57:33;8.25;;;1.73;;
62711;SDS011;48772;55.586;37.730;2023-05-02T05:00:00;4.80;;;1.83;;
62711;SDS011;48772;55.586;37.730;2023-05-02T05:02:33;8.40;;;2.60;;
62711;SDS011;48772;55.586;37.730;2023-05-02T05:05:00;3.30;;;1.60;;
62711;SDS011;48772;55.586;37.730;2023-05-02T05:07:30;2.25;;;1.23;;
62711;SDS011;48772;55.586;37.730;2023-05-02T05:09:56;3.65;;;2.47;;
62711;SDS011;48772;55.586;37.730;2023-05-02T05:12:25;3.35;;;1.58;;
62711;SDS011;48772;55.586;37.730;2023-05-02T05:14:51;3.42;;;1.83;;
62711;SDS011;48772;55.586;37.730;2023-05-02T05:17:19;5.57;;;1.70;;
62711;SDS011;48772;55.586;37.730;2023-05-02T05:19:45;5.63;;;1.65;;
62711;SDS011;48772;55.586;37.730;2023-05-02T05:22:11;5.82;;;1.60;;
62711;SDS011;48772;55.586;37.730;2023-05-02T05:24:37;2.95;;;1.30;;
62711;SDS011;48772;55.586;37.730;2023-05-02T05:27:04;2.83;;;1.58;;
62711;SDS011;48772;55.586;37.730;2023-05-02T05:29:30;5.85;;;2.08;;
62711;SDS011;48772;55.586;37.730;2023-05-02T05:31:58;5.10;;;1.23;;
62711;SDS011;48772;55.586;37.730;2023-05-02T05:34:24;3.40;;;1.40;;
62711;SDS011;48772;55.586;37.730;2023-05-02T05:36:53;2.80;;;1.90;;
62711;SDS011;48772;55.586;37.730;2023-05-02T05:39:20;3.00;;;1.20;;
62711;SDS011;48772;55.586;37.730;2023-05-02T05:41:48;4.78;;;1.33;;
62711;SDS011;48772;55.586;37.730;2023-05-02T05:44:16;3.40;;;1.42;;
62711;SDS011;48772;55.586;37.730;2023-05-02T05:46:42;1.85;;;0.90;;
62711;SDS011;48772;55.586;37.730;2023-05-02T05:49:10;2.47;;;1.20;;
62711;SDS011;48772;55.586;37.730;2023-05-02T05:51:38;2.85;;;0.90;;
62711;SDS011;48772;55.586;37.730;2023-05-02T05:54:03;1.50;;;1.10;;
62711;SDS011;48772;55.586;37.730;2023-05-02T05:56:30;2.42;;;1.17;;
62711;SDS011;48772;55.586;37.730;2023-05-02T05:59:06;1.65;;;1.23;;
62711;SDS011;48772;55.586;37.730;2023-05-02T06:01:32;3.17;;;0.98;;
62711;SDS011;48772;55.586;37.730;2023-05-02T06:03:58;4.32;;;1.10;;
62711;SDS011;48772;55.586;37.730;2023-05-02T06:06:24;2.83;;;0.80;;
62711;SDS011;48772;55.586;37.730;2023-05-02T06:08:51;1.58;;;0.85;;
62711;SDS011;48772;55.586;37.730;2023-05-02T06:11:17;8.20;;;0.90;;
62711;SDS011;48772;55.586;37.730;2023-05-02T06:13:43;3.13;;;1.20;;
62711;SDS011;48772;55.586;37.730;2023-05-02T06:16:09;0.82;;;0.82;;
62711;SDS011;48772;55.586;37.730;2023-05-02T06:18:54;3.60;;;1.00;;
62711;SDS011;48772;55.586;37.730;2023-05-02T06:21:20;5.18;;;1.00;;
62711;SDS011;48772;55.586;37.730;2023-05-02T06:23:45;2.72;;;0.98;;
62711;SDS011;48772;55.586;37.730;2023-05-02T06:26:11;3.75;;;0.90;;
62711;SDS011;48772;55.586;37.730;2023-05-02T06:28:37;2.90;;;1.05;;
62711;SDS011;48772;55.586;37.730;2023-05-02T06:31:21;1.23;;;0.95;;
62711;SDS011;48772;55.586;37.730;2023-05-02T06:33:47;1.90;;;0.90;;
62711;SDS011;48772;55.586;37.730;2023-05-02T06:36:13;4.50;;;1.20;;
62711;SDS011;48772;55.586;37.730;2023-05-02T06:38:39;5.43;;;1.42;;
62711;SDS011;48772;55.586;37.730;2023-05-02T06:41:05;2.50;;;1.17;;
62711;SDS011;48772;55.586;37.730;2023-05-02T06:43:30;1.92;;;1.30;;
62711;SDS011;48772;55.586;37.730;2023-05-02T06:45:57;3.70;;;1.63;;
62711;SDS011;48772;55.586;37.730;2023-05-02T06:48:23;5.55;;;1.50;;
62711;SDS011;48772;55.586;37.730;2023-05-02T06:50:50;1.90;;;1.80;;
62711;SDS011;48772;55.586;37.730;2023-05-02T06:53:16;5.57;;;1.40;;
62711;SDS011;48772;55.586;37.730;2023-05-02T06:55:43;5.13;;;1.08;;
62711;SDS011;48772;55.586;37.730;2023-05-02T06:58:10;2.45;;;1.10;;
62711;SDS011;48772;55.586;37.730;2023-05-02T07:00:36;1.92;;;1.48;;
62711;SDS011;48772;55.586;37.730;2023-05-02T07:03:02;9.63;;;2.45;;
62711;SDS011;48772;55.586;37.730;2023-05-02T07:05:28;0.82;;;0.82;;
62711;SDS011;48772;55.586;37.730;2023-05-02T07:07:55;1.90;;;1.10;;
62711;SDS011;48772;55.586;37.730;2023-05-02T07:10:21;5.43;;;1.40;;
62711;SDS011;48772;55.586;37.730;2023-05-02T07:12:47;3.10;;;1.20;;
62711;SDS011;48772;55.586;37.730;2023-05-02T07:15:13;1.63;;;1.10;;
62711;SDS011;48772;55.586;37.730;2023-05-02T07:17:49;2.05;;;1.27;;
62711;SDS011;48772;55.586;37.730;2023-05-02T07:20:15;4.28;;;1.25;;
62711;SDS011;48772;55.586;37.730;2023-05-02T07:22:41;6.03;;;1.20;;
62711;SDS011;48772;55.586;37.730;2023-05-02T07:25:07;2.80;;;1.38;;
62711;SDS011;48772;55.586;37.730;2023-05-02T07:27:33;2.75;;;1.30;;
62711;SDS011;48772;55.586;37.730;2023-05-02T07:29:59;4.93;;;1.10;;
62711;SDS011;48772;55.586;37.730;2023-05-02T07:32:26;3.28;;;1.10;;
62711;SDS011;48772;55.586;37.730;2023-05-02T07:34:52;5.03;;;1.02;;
62711;SDS011;48772;55.586;37.730;2023-05-02T07:37:19;1.30;;;1.20;;
62711;SDS011;48772;55.586;37.730;2023-05-02T07:39:45;4.55;;;1.45;;
62711;SDS011;48772;55.586;37.730;2023-05-02T07:42:11;2.58;;;1.00;;
62711;SDS011;48772;55.586;37.730;2023-05-02T07:44:37;1.13;;;1.00;;
62711;SDS011;48772;55.586;37.730;2023-05-02T07:47:03;1.80;;;0.88;;
62711;SDS011;48772;55.586;37.730;2023-05-02T07:49:29;2.40;;;1.00;;
62711;SDS011;48772;55.586;37.730;2023-05-02T07:51:56;4.28;;;1.25;;
62711;SDS011;48772;55.586;37.730;2023-05-02T07:54:22;2.35;;;0.95;;
62711;SDS011;48772;55.586;37.730;2023-05-02T07:56:50;2.55;;;1.13;;
62711;SDS011;48772;55.586;37.730;2023-05-02T07:59:16;4.72;;;1.10;;
62711;SDS011;48772;55.586;37.730;2023-05-02T08:01:42;3.72;;;1.35;;
62711;SDS011;48772;55.586;37.730;2023-05-02T08:04:09;2.90;;;1.38;;
62711;SDS011;48772;55.586;37.730;2023-05-02T08:06:36;4.28;;;1.25;;
62711;SDS011;48772;55.586;37.730;2023-05-02T08:09:02;3.10;;;1.20;;
62711;SDS011;48772;55.586;37.730;2023-05-02T08:11:28;1.65;;;1.20;;
62711;SDS011;48772;55.586;37.730;2023-05-02T08:13:54;1.75;;;1.10;;
62711;SDS011;48772;55.586;37.730;2023-05-02T08:16:20;2.88;;;1.20;;
62711;SDS011;48772;55.586;37.730;2023-05-02T08:18:46;4.70;;;1.17;;
62711;SDS011;48772;55.586;37.730;2023-05-02T08:21:12;2.55;;;1.13;;
62711;SDS011;48772;55.586;37.730;2023-05-02T08:23:39;5.43;;;1.30;;
62711;SDS011;48772;55.586;37.730;2023-05-02T08:26:06;8.20;;;1.40;;
62711;SDS011;48772;55.586;37.730;2023-05-02T08:28:34;2.97;;;1.10;;
62711;SDS011;48772;55.586;37.730;2023-05-02T08:31:00;2.78;;;1.50;;
62711;SDS011;48772;55.586;37.730;2023-05-02T08:33:26;2.70;;;1.30;;
62711;SDS011;48772;55.586;37.730;2023-05-02T08:35:52;1.83;;;1.10;;
62711;SDS011;48772;55.586;37.730;2023-05-02T08:38:18;1.50;;;1.10;;
62711;SDS011;48772;55.586;37.730;2023-05-02T08:40:43;1.80;;;1.25;;
62711;SDS011;48772;55.586;37.730;2023-05-02T08:43:10;3.55;;;1.33;;
62711;SDS011;48772;55.586;37.730;2023-05-02T08:45:41;2.15;;;1.10;;
62711;SDS011;48772;55.586;37.730;2023-05-02T08:48:09;6.05;;;1.10;;
62711;SDS011;48772;55.586;37.730;2023-05-02T08:50:37;2.42;;;1.20;;
62711;SDS011;48772;55.586;37.730;2023-05-02T08:53:09;4.93;;;1.40;;
62711;SDS011;48772;55.586;37.730;2023-05-02T08:55:37;2.25;;;1.38;;
62711;SDS011;48772;55.586;37.730;2023-05-02T08:58:05;4.88;;;1.30;;
62711;SDS011;48772;55.586;37.730;2023-05-02T09:00:34;6.75;;;1.13;;
62711;SDS011;48772;55.586;37.730;2023-05-02T09:03:26;1.92;;;1.17;;
62711;SDS011;48772;55.586;37.730;2023-05-02T09:06:03;1.40;;;1.10;;
62711;SDS011;48772;55.586;37.730;2023-05-02T09:08:32;4.05;;;1.20;;
62711;SDS011;48772;55.586;37.730;2023-05-02T09:11:00;4.55;;;1.20;;
62711;SDS011;48772;55.586;37.730;2023-05-02T09:13:27;1.90;;;1.08;;
62711;SDS011;48772;55.586;37.730;2023-05-02T09:15:58;4.75;;;1.63;;
62711;SDS011;48772;55.586;37.730;2023-05-02T09:18:29;3.80;;;1.25;;
62711;SDS011;48772;55.586;37.730;2023-05-02T09:20:57;2.42;;;1.15;;
62711;SDS011;48772;55.586;37.730;2023-05-02T09:23:35;1.65;;;1.20;;
62711;SDS011;48772;55.586;37.730;2023-05-02T09:26:09;2.58;;;1.10;;
62711;SDS011;48772;55.586;37.730;2023-05-02T09:28:47;1.38;;;1.15;;
62711;SDS011;48772;55.586;37.730;2023-05-02T09:34:11;4.10;;;1.85;;
62711;SDS011;48772;55.586;37.730;2023-05-02T09:36:39;4.22;;;1.30;;
62711;SDS011;48772;55.586;37.730;2023-05-02T09:39:09;2.33;;;1.00;;
62711;SDS011;48772;55.586;37.730;2023-05-02T09:41:41;2.17;;;0.80;;
62711;SDS011;48772;55.586;37.730;2023-05-02T09:44:11;3.10;;;1.10;;
62711;SDS011;48772;55.586;37.730;2023-05-02T09:46:43;4.00;;;1.10;;
62711;SDS011;48772;55.586;37.730;2023-05-02T09:49:13;1.85;;;1.17;;
62711;SDS011;48772;55.586;37.730;2023-05-02T09:51:39;8.02;;;1.10;;
62711;SDS011;48772;55.586;37.730;2023-05-02T09:54:05;2.33;;;0.90;;
62711;SDS011;48772;55.586;37.730;2023-05-02T09:56:36;3.00;;;1.58;;
62711;SDS011;48772;55.586;37.730;2023-05-02T09:59:23;2.85;;;1.25;;
62711;SDS011;48772;55.586;37.730;2023-05-02T10:01:56;5.80;;;1.17;;
62711;SDS011;48772;55.586;37.730;2023-05-02T10:04:26;5.43;;;1.02;;
62711;SDS011;48772;55.586;37.730;2023-05-02T10:06:54;3.35;;;1.10;;
62711;SDS011;48772;55.586;37.730;2023-05-02T10:09:22;4.50;;;1.13;;
62711;SDS011;48772;55.586;37.730;2023-05-02T10:11:52;10.60;;;1.20;;
62711;SDS011;48772;55.586;37.730;2023-05-02T10:14:20;2.33;;;1.30;;
62711;SDS011;48772;55.586;37.730;2023-05-02T10:20:03;1.95;;;1.40;;
62711;SDS011;48772;55.586;37.730;2023-05-02T10:22:35;2.78;;;1.20;;
62711;SDS011;48772;55.586;37.730;2023-05-02T10:25:01;3.30;;;1.20;;
62711;SDS011;48772;55.586;37.730;2023-05-02T10:27:32;5.03;;;1.20;;
62711;SDS011;48772;55.586;37.730;2023-05-02T10:29:58;2.17;;;1.10;;
62711;SDS011;48772;55.586;37.730;2023-05-02T10:32:28;3.78;;;1.20;;
62711;SDS011;48772;55.586;37.730;2023-05-02T10:34:55;3.42;;;1.20;;
62711;SDS011;48772;55.586;37.730;2023-05-02T10:37:25;1.73;;;1.27;;
62711;SDS011;48772;55.586;37.730;2023-05-02T10:39:53;2.80;;;1.50;;
62711;SDS011;48772;55.586;37.730;2023-05-02T10:42:19;6.80;;;1.33;;
62711;SDS011;48772;55.586;37.730;2023-05-02T10:44:46;1.77;;;1.20;;
62711;SDS011;48772;55.586;37.730;2023-05-02T10:49:49;2.42;;;1.05;;
62711;SDS011;48772;55.586;37.730;2023-05-02T10:52:30;6.68;;;1.40;;
62711;SDS011;48772;55.586;37.730;2023-05-02T11:00:26;6.65;;;1.50;;
62711;SDS011;48772;55.586;37.730;2023-05-02T11:02:56;2.22;;;1.27;;
62711;SDS011;48772;55.586;37.730;2023-05-02T11:05:22;1.67;;;1.15;;
62711;SDS011;48772;55.586;37.730;2023-05-02T11:07:49;1.45;;;1.10;;
62711;SDS011;48772;55.586;37.730;2023-05-02T11:10:41;2.22;;;1.23;;
62711;SDS011;48772;55.586;37.730;2023-05-02T11:13:07;4.95;;;1.52;;
62711;SDS011;48772;55.586;37.730;2023-05-02T11:20:40;4.82;;;1.23;;
62711;SDS011;48772;55.586;37.730;2023-05-02T11:26:04;2.63;;;1.13;;
62711;SDS011;48772;55.586;37.730;2023-05-02T11:28:46;4.00;;;1.30;;
62711;SDS011;48772;55.586;37.730;2023-05-02T11:31:56;3.67;;;1.38;;
62711;SDS011;48772;55.586;37.730;2023-05-02T11:34:17;3.63;;;1.40;;
62711;SDS011;48772;55.586;37.730;2023-05-02T11:36:43;3.97;;;1.33;;
62711;SDS011;48772;55.586;37.730;2023-05-02T11:39:17;2.08;;;1.15;;
62711;SDS011;48772;55.586;37.730;2023-05-02T11:41:45;3.08;;;1.60;;
62711;SDS011;48772;55.586;37.730;2023-05-02T11:44:12;2.00;;;1.42;;
62711;SDS011;48772;55.586;37.730;2023-05-02T11:46:39;1.95;;;1.40;;
62711;SDS011;48772;55.586;37.730;2023-05-02T11:49:05;5.10;;;1.35;;
62711;SDS011;48772;55.586;37.730;2023-05-02T11:51:38;2.85;;;1.60;;
62711;SDS011;48772;55.586;37.730;2023-05-02T11:54:03;2.85;;;1.10;;
62711;SDS011;48772;55.586;37.730;2023-05-02T11:56:32;3.38;;;1.30;;
62711;SDS011;48772;55.586;37.730;2023-05-02T11:58:58;2.28;;;1.38;;
62711;SDS011;48772;55.586;37.730;2023-05-02T12:01:25;3.63;;;1.27;;
62711;SDS011;48772;55.586;37.730;2023-05-02T12:04:01;4.18;;;1.48;;
62711;SDS011;48772;55.586;37.730;2023-05-02T12:06:28;1.58;;;1.30;;
62711;SDS011;48772;55.586;37.730;2023-05-02T12:09:05;5.25;;;1.30;;
62711;SDS011;48772;55.586;37.730;2023-05-02T12:11:35;5.07;;;1.45;;
62711;SDS011;48772;55.586;37.730;2023-05-02T12:14:02;3.63;;;1.25;;
62711;SDS011;48772;55.586;37.730;2023-05-02T12:16:30;2.83;;;1.30;;
62711;SDS011;48772;55.586;37.730;2023-05-02T12:18:56;5.47;;;1.30;;
62711;SDS011;48772;55.586;37.730;2023-05-02T12:21:28;3.92;;;1.20;;
62711;SDS011;48772;55.586;37.730;2023-05-02T12:23:55;2.50;;;1.40;;
62711;SDS011;48772;55.586;37.730;2023-05-02T12:26:24;3.80;;;2.65;;
62711;SDS011;48772;55.586;37.730;2023-05-02T12:28:57;2.85;;;1.60;;
62711;SDS011;48772;55.586;37.730;2023-05-02T12:31:23;4.72;;;2.33;;
62711;SDS011;48772;55.586;37.730;2023-05-02T12:33:50;2.05;;;1.50;;
62711;SDS011;48772;55.586;37.730;2023-05-02T12:36:19;1.90;;;1.40;;
62711;SDS011;48772;55.586;37.730;2023-05-02T12:38:50;5.03;;;1.48;;
62711;SDS011;48772;55.586;37.730;2023-05-02T12:41:38;6.57;;;1.42;;
62711;SDS011;48772;55.586;37.730;2023-05-02T12:44:07;1.70;;;1.15;;
62711;SDS011;48772;55.586;37.730;2023-05-02T12:46:33;1.65;;;1.23;;
62711;SDS011;48772;55.586;37.730;2023-05-02T12:49:01;6.55;;;1.75;;
62711;SDS011;48772;55.586;37.730;2023-05-02T12:51:27;3.92;;;1.23;;
62711;SDS011;48772;55.586;37.730;2023-05-02T12:53:53;3.20;;;1.45;;
62711;SDS011;48772;55.586;37.730;2023-05-02T12:56:18;4.28;;;1.17;;
62711;SDS011;48772;55.586;37.730;2023-05-02T12:58:45;2.10;;;1.42;;
62711;SDS011;48772;55.586;37.730;2023-05-02T13:01:12;6.25;;;1.40;;
62711;SDS011;48772;55.586;37.730;2023-05-02T13:03:40;2.50;;;1.40;;
62711;SDS011;48772;55.586;37.730;2023-05-02T13:06:07;2.55;;;1.13;;
62711;SDS011;48772;55.586;37.730;2023-05-02T13:08:33;5.70;;;1.23;;
62711;SDS011;48772;55.586;37.730;2023-05-02T13:11:00;3.35;;;1.58;;
62711;SDS011;48772;55.586;37.730;2023-05-02T13:13:29;7.35;;;1.67;;
62711;SDS011;48772;55.586;37.730;2023-05-02T13:15:55;6.97;;;1.40;;
62711;SDS011;48772;55.586;37.730;2023-05-02T13:18:21;2.55;;;1.40;;
62711;SDS011;48772;55.586;37.730;2023-05-02T13:20:48;2.80;;;1.30;;
62711;SDS011;48772;55.586;37.730;2023-05-02T13:23:14;3.80;;;1.48;;
62711;SDS011;48772;55.586;37.730;2023-05-02T13:25:41;1.70;;;1.33;;
62711;SDS011;48772;55.586;37.730;2023-05-02T13:28:07;4.90;;;1.50;;
62711;SDS011;48772;55.586;37.730;2023-05-02T13:30:33;4.82;;;1.55;;
62711;SDS011;48772;55.586;37.730;2023-05-02T13:32:59;3.55;;;1.40;;
62711;SDS011;48772;55.586;37.730;2023-05-02T13:35:26;3.22;;;1.35;;
62711;SDS011;48772;55.586;37.730;2023-05-02T13:37:52;9.15;;;1.50;;
62711;SDS011;48772;55.586;37.730;2023-05-02T13:40:18;1.95;;;1.38;;
62711;SDS011;48772;55.586;37.730;2023-05-02T13:42:45;3.08;;;1.40;;
62711;SDS011;48772;55.586;37.730;2023-05-02T13:45:11;6.25;;;1.30;;
62711;SDS011;48772;55.586;37.730;2023-05-02T13:47:37;1.98;;;1.23;;
62711;SDS011;48772;55.586;37.730;2023-05-02T13:50:04;2.88;;;1.30;;
62711;SDS011;48772;55.586;37.730;2023-05-02T13:52:30;3.17;;;1.40;;
62711;SDS011;48772;55.586;37.730;2023-05-02T13:54:56;4.07;;;1.42;;
62711;SDS011;48772;55.586;37.730;2023-05-02T13:57:21;2.15;;;1.30;;
62711;SDS011;48772;55.586;37.730;2023-05-02T13:59:47;3.10;;;1.35;;
62711;SDS011;48772;55.586;37.730;2023-05-02T14:02:14;3.20;;;1.30;;
62711;SDS011;48772;55.586;37.730;2023-05-02T14:04:39;3.45;;;1.23;;
62711;SDS011;48772;55.586;37.730;2023-05-02T14:07:05;5.63;;;1.30;;
62711;SDS011;48772;55.586;37.730;2023-05-02T14:09:31;3.10;;;1.15;;
62711;SDS011;48772;55.586;37.730;2023-05-02T14:11:57;4.95;;;1.30;;
62711;SDS011;48772;55.586;37.730;2023-05-02T14:14:23;4.72;;;1.30;;
62711;SDS011;48772;55.586;37.730;2023-05-02T14:16:49;4.32;;;1.20;;
62711;SDS011;48772;55.586;37.730;2023-05-02T14:19:16;3.13;;;1.30;;
62711;SDS011;48772;55.586;37.730;2023-05-02T14:21:42;1.73;;;1.10;;
62711;SDS011;48772;55.586;37.730;2023-05-02T14:24:08;3.60;;;1.20;;
62711;SDS011;48772;55.586;37.730;2023-05-02T14:26:34;2.33;;;1.30;;
62711;SDS011;48772;55.586;37.730;2023-05-02T14:28:59;1.25;;;1.15;;
62711;SDS011;48772;55.586;37.730;2023-05-02T14:31:25;1.42;;;1.10;;
62711;SDS011;48772;55.586;37.730;2023-05-02T14:33:51;1.20;;;1.00;;
62711;SDS011;48772;55.586;37.730;2023-05-02T14:36:22;2.15;;;1.10;;
62711;SDS011;48772;55.586;37.730;2023-05-02T14:38:48;1.20;;;1.10;;
62711;SDS011;48772;55.586;37.730;2023-05-02T14:41:14;1.98;;;1.10;;
62711;SDS011;48772;55.586;37.730;2023-05-02T14:43:40;1.63;;;1.00;;
62711;SDS011;48772;55.586;37.730;2023-05-02T14:46:05;1.15;;;0.90;;
62711;SDS011;48772;55.586;37.730;2023-05-02T14:48:31;4.05;;;0.90;;
62711;SDS011;48772;55.586;37.730;2023-05-02T14:50:57;4.30;;;1.10;;
62711;SDS011;48772;55.586;37.730;2023-05-02T14:53:25;1.15;;;1.05;;
62711;SDS011;48772;55.586;37.730;2023-05-02T14:55:51;3.95;;;0.80;;
62711;SDS011;48772;55.586;37.730;2023-05-02T14:58:17;0.90;;;0.90;;
62711;SDS011;48772;55.586;37.730;2023-05-02T15:00:45;1.10;;;1.00;;
62711;SDS011;48772;55.586;37.730;2023-05-02T15:03:11;1.73;;;1.10;;
62711;SDS011;48772;55.586;37.730;2023-05-02T15:05:37;5.45;;;1.00;;
62711;SDS011;48772;55.586;37.730;2023-05-02T15:08:04;2.80;;;1.02;;
62711;SDS011;48772;55.586;37.730;2023-05-02T15:10:31;1.77;;;1.00;;
62711;SDS011;48772;55.586;37.730;2023-05-02T15:13:00;1.27;;;0.90;;
62711;SDS011;48772;55.586;37.730;2023-05-02T15:15:28;2.15;;;1.20;;
62711;SDS011;48772;55.586;37.730;2023-05-02T15:17:54;1.50;;;1.20;;
62711;SDS011;48772;55.586;37.730;2023-05-02T15:20:20;0.90;;;0.90;;
62711;SDS011;48772;55.586;37.730;2023-05-02T15:22:45;1.15;;;0.80;;
62711;SDS011;48772;55.586;37.730;2023-05-02T15:25:11;0.70;;;0.70;;
62711;SDS011;48772;55.586;37.730;2023-05-02T15:27:40;1.40;;;1.10;;